Fabian Garcia SC

2021-03-02 07:25:00

  • imperial
Date Time Air Temperature Relative Humidity Dewpoint Windchill Heat Index Wind Speed Wind Dir. Rain Solar Radiation Soil Temperature
2m 2m 3m 3m 10cm
US/Mountain F % F F F MPH deg in MJ/m^2 F
max avg avg
2021-03-01 07:30:00 41.4 49.5 23.9 39.2 41.4 3.7 6.3 4.8 32.7 18.0 0.00 0.0415090 43.9
2021-03-01 07:35:00 41.8 47.9 23.4 37.5 41.8 6.5 7.8 5.8 35.6 12.0 0.00 0.0467249 43.9
2021-03-01 07:40:00 41.9 47.1 23.2 37.4 41.9 7.1 8.7 6.2 5.2 4.9 0.00 0.0496501 43.9
2021-03-01 07:45:00 42.1 46.5 23.1 38.3 42.1 6.0 6.9 5.2 23.4 27.3 0.00 0.0542697 43.9
2021-03-01 07:50:00 42.5 46.2 23.2 40.5 42.5 3.7 6.9 4.8 337.4 21.1 0.00 0.0620885 43.9
2021-03-01 07:55:00 43.1 45.8 23.6 40.7 43.1 4.2 6.3 4.6 33.0 25.7 0.00 0.0674144 43.9
2021-03-01 08:00:00 43.0 45.7 23.5 40.6 43.0 4.2 7.4 5.6 19.5 39.9 0.00 0.0730602 43.9
2021-03-01 08:05:00 43.6 43.1 22.7 39.2 43.6 7.6 8.3 5.2 29.7 32.7 0.00 0.0781679 43.8
2021-03-01 08:10:00 43.9 42.3 22.4 39.0 43.9 8.7 9.7 7.2 30.0 26.8 0.00 0.0840985 43.8
2021-03-01 08:15:00 44.0 43.4 23.2 38.9 44.0 9.2 14.0 9.1 335.8 11.2 0.00 0.0894614 43.8
2021-03-01 08:20:00 44.5 41.8 22.8 40.6 44.5 7.1 8.3 6.2 37.6 18.0 0.00 0.0946337 43.8
2021-03-01 08:25:00 45.0 40.0 22.1 41.6 45.0 6.0 9.9 7.1 8.2 5.9 0.00 0.0997556 43.8
2021-03-01 08:30:00 45.0 39.7 21.9 40.4 45.0 8.3 9.9 7.4 6.4 20.1 0.00 0.1051634 43.8
2021-03-01 08:35:00 45.3 39.0 21.7 41.2 45.3 7.4 11.0 7.6 32.4 26.5 0.00 0.1101672 43.8
2021-03-01 08:40:00 45.9 37.2 21.2 42.0 45.9 7.4 8.8 6.9 0.1 25.6 0.00 0.1152124 43.8
2021-03-01 08:45:00 46.1 37.2 21.4 42.9 46.1 6.2 10.3 6.7 29.9 13.2 0.00 0.1204677 43.8
2021-03-01 08:50:00 46.3 35.8 20.6 42.6 46.3 7.2 8.5 6.8 33.9 19.9 0.00 0.1254098 43.8
2021-03-01 08:55:00 46.3 34.1 19.5 42.9 46.3 6.7 10.5 7.5 27.4 24.2 0.00 0.1305071 43.9
2021-03-01 09:00:00 46.5 34.1 19.7 43.2 46.5 6.5 10.5 6.9 4.1 14.1 0.00 0.1354112 43.9
2021-03-01 09:05:00 47.1 33.6 19.9 43.1 47.1 8.1 11.3 7.6 9.6 3.7 0.00 0.1401203 43.9
2021-03-01 09:10:00 46.9 33.9 20.0 43.4 46.9 7.2 10.5 7.7 7.0 2.6 0.00 0.1448757 43.9
2021-03-01 09:15:00 46.6 34.1 19.8 43.5 46.6 6.2 7.2 5.7 16.7 35.2 0.00 0.1491930 43.9
2021-03-01 09:20:00 47.5 32.7 19.6 44.1 47.5 7.1 9.0 7.0 0.1 5.1 0.00 0.1539500 44.0
2021-03-01 09:25:00 47.7 32.2 19.4 43.7 47.7 8.5 9.2 4.3 33.5 340.7 0.00 0.1584561 44.0
2021-03-01 09:30:00 48.1 32.2 19.7 46.1 48.1 4.7 7.8 6.1 0.1 11.0 0.00 0.1630690 44.0
2021-03-01 09:35:00 48.2 31.7 19.5 46.9 48.2 3.8 5.5 3.9 66.2 69.0 0.00 0.1670851 44.1
2021-03-01 09:40:00 49.1 30.7 19.5 47.2 49.1 4.9 6.0 3.6 30.1 51.6 0.00 0.1711605 44.1
2021-03-01 09:45:00 48.6 31.1 19.4 48.6 48.6 1.3 8.5 3.6 139.2 317.5 0.00 0.1754866 44.2
2021-03-01 09:50:00 48.3 31.7 19.6 46.8 48.3 4.2 10.1 3.5 41.3 31.6 0.00 0.1797505 44.2
2021-03-01 09:55:00 48.4 31.9 19.8 44.9 48.4 7.6 7.6 4.6 25.5 69.1 0.00 0.1834417 44.3
2021-03-01 10:00:00 49.0 30.8 19.5 47.5 49.0 4.4 6.7 3.1 10.8 18.8 0.00 0.1872430 44.3
2021-03-01 10:05:00 48.4 31.5 19.5 48.4 48.4 1.2 8.3 4.3 7.8 25.3 0.00 0.1921000 44.4
2021-03-01 10:10:00 49.2 30.9 19.7 49.2 49.2 1.9 4.2 2.6 120.0 43.0 0.00 0.1970024 44.5
2021-03-01 10:15:00 50.3 32.1 21.6 50.3 50.3 2.4 4.2 2.9 138.4 139.1 0.00 0.2041914 44.5
2021-03-01 10:20:00 51.0 30.3 20.9 51.0 51.0 0.0 3.1 1.7 45.8 71.7 0.00 0.2089284 44.6
2021-03-01 10:25:00 52.1 29.4 21.1 52.1 52.1 2.6 3.8 1.2 90.9 118.2 0.00 0.2109786 44.7
2021-03-01 10:30:00 51.0 28.4 19.4 51.0 51.0 2.6 7.1 3.6 71.0 81.4 0.00 0.2172857 44.8
2021-03-01 10:35:00 50.4 28.2 18.7 50.4 50.4 0.0 4.6 3.0 305.5 106.3 0.00 0.2308382 44.9
2021-03-01 10:40:00 51.7 27.5 19.2 51.7 51.7 3.7 4.2 1.2 194.3 106.3 0.00 0.2326739 45.0
2021-03-01 10:45:00 51.0 28.4 19.4 51.0 51.0 3.7 7.8 3.6 83.8 135.6 0.00 0.2305429 45.1
2021-03-01 10:50:00 50.8 30.5 20.8 50.8 50.8 3.3 7.6 4.6 130.8 159.7 0.00 0.2272275 45.2
2021-03-01 10:55:00 52.1 26.8 19.0 52.1 52.1 3.5 6.5 4.2 118.6 117.2 0.00 0.2310903 45.3
2021-03-01 11:00:00 51.0 27.9 18.9 51.0 51.0 3.0 7.2 4.7 38.1 82.3 0.00 0.2380165 45.5
2021-03-01 11:05:00 50.8 28.2 19.1 50.8 50.8 3.8 8.0 5.0 47.1 60.2 0.00 0.2444679 45.6
2021-03-01 11:10:00 51.5 28.4 19.7 51.5 51.5 4.0 6.0 3.7 164.0 65.2 0.00 0.2588440 45.7
2021-03-01 11:15:00 52.6 27.2 19.7 52.6 52.6 2.8 4.2 2.1 76.3 117.8 0.00 0.2759612 45.8
2021-03-01 11:20:00 52.6 26.3 18.9 52.6 52.6 6.7 8.0 4.4 39.3 104.7 0.00 0.2832907 46.0
2021-03-01 11:25:00 51.8 29.0 20.5 51.8 51.8 0.0 8.3 5.5 309.2 17.0 0.00 0.2680971 46.1
2021-03-01 11:30:00 52.3 26.3 18.7 52.3 52.3 5.8 6.7 2.8 253.9 308.8 0.00 0.2549360 46.2
2021-03-01 11:35:00 51.9 27.3 19.2 51.9 51.9 3.1 5.5 3.7 277.3 271.4 0.00 0.2476741 46.4
2021-03-01 11:40:00 53.2 25.8 19.1 53.2 53.2 2.4 4.9 2.9 56.8 333.5 0.00 0.2456203 46.5
2021-03-01 11:45:00 53.5 25.4 18.9 53.5 53.5 4.7 8.0 2.9 112.4 115.3 0.00 0.2465067 46.6
2021-03-01 11:50:00 52.3 26.0 18.3 52.3 52.3 3.0 11.3 5.5 112.0 115.7 0.00 0.2485802 46.7
2021-03-01 11:55:00 52.8 27.6 20.2 52.8 52.8 1.3 3.7 1.6 181.7 97.3 0.00 0.2525229 46.9
2021-03-01 12:00:00 53.2 26.0 19.1 53.2 53.2 2.6 5.1 2.6 144.9 174.8 0.00 0.2582473 47.0
2021-03-01 12:05:00 53.2 25.1 18.4 53.2 53.2 4.6 6.9 4.5 199.4 163.1 0.00 0.2456046 47.1
2021-03-01 12:10:00 53.5 25.0 18.4 53.5 53.5 2.2 5.8 3.5 278.8 162.7 0.00 0.2632376 47.2
2021-03-01 12:15:00 54.1 25.6 19.6 54.1 54.1 2.6 4.6 2.5 186.3 314.5 0.00 0.2563396 47.4
2021-03-01 12:20:00 55.3 23.8 18.9 55.3 55.3 5.1 5.1 1.1 79.9 97.6 0.00 0.2597660 47.4
2021-03-01 12:25:00 53.8 25.2 19.0 53.8 53.8 3.7 8.3 5.4 70.3 51.9 0.00 0.2606601 47.5
2021-03-01 12:30:00 53.4 25.4 18.8 53.4 53.4 2.4 8.7 5.8 47.4 44.6 0.00 0.2665574 47.6
2021-03-01 12:35:00 52.8 26.0 18.8 52.8 52.8 2.2 6.7 3.8 223.6 65.2 0.00 0.2680633 47.7
2021-03-01 12:40:00 53.9 27.0 20.7 53.9 53.9 3.8 7.1 4.9 103.3 85.6 0.00 0.2618206 47.8
2021-03-01 12:45:00 53.5 28.3 21.5 53.5 53.5 5.5 9.9 5.3 221.7 175.1 0.00 0.2652985 47.8
2021-03-01 12:50:00 54.2 26.4 20.4 54.2 54.2 6.9 8.5 5.0 125.4 130.8 0.00 0.2072252 47.9
2021-03-01 12:55:00 53.7 28.0 21.3 53.7 53.7 5.6 8.8 6.2 120.6 148.7 0.00 0.2170263 48.0
2021-03-01 13:00:00 53.7 29.3 22.4 53.7 53.7 3.3 6.0 3.4 84.0 126.8 0.00 0.2404755 48.1
2021-03-01 13:05:00 53.9 29.0 22.3 53.9 53.9 7.8 12.4 6.4 216.3 154.9 0.00 0.2405230 48.2
2021-03-01 13:10:00 54.6 27.1 21.3 54.6 54.6 6.7 8.8 6.0 114.6 140.7 0.00 0.2440180 48.4
2021-03-01 13:15:00 54.0 27.4 21.1 54.0 54.0 5.1 8.7 4.4 101.6 127.3 0.00 0.2420626 48.5
2021-03-01 13:20:00 54.8 27.3 21.7 54.8 54.8 7.6 9.6 5.4 135.2 137.5 0.00 0.2251196 48.6
2021-03-01 13:25:00 53.7 29.7 22.7 53.7 53.7 10.3 11.9 7.4 100.2 150.5 0.00 0.0868646 48.8
2021-03-01 13:30:00 53.1 29.0 21.6 53.1 53.1 7.1 11.9 7.6 187.1 174.7 0.00 0.2210667 48.9
2021-03-01 13:35:00 54.0 27.7 21.4 54.0 54.0 6.7 9.2 6.5 181.3 188.0 0.00 0.2405199 49.1
2021-03-01 13:40:00 53.3 30.0 22.6 53.3 53.3 6.0 13.1 7.9 147.8 188.1 0.00 0.1957559 49.2
2021-03-01 13:45:00 54.0 28.4 21.9 54.0 54.0 7.8 8.7 5.8 152.6 158.9 0.00 0.2342332 49.4
2021-03-01 13:50:00 55.2 28.0 22.7 55.2 55.2 3.5 8.0 4.8 183.6 151.1 0.00 0.2339462 49.5
2021-03-01 13:55:00 54.6 27.5 21.8 54.6 54.6 7.8 8.1 5.5 232.4 201.2 0.00 0.2355498 49.6
2021-03-01 14:00:00 54.2 28.1 21.8 54.2 54.2 5.6 11.3 7.5 205.9 224.1 0.00 0.2283873 49.7
2021-03-01 14:05:00 54.1 27.2 21.0 54.1 54.1 8.8 9.7 5.8 197.8 217.6 0.00 0.2183658 49.9
2021-03-01 14:10:00 54.6 27.0 21.2 54.6 54.6 10.3 11.3 7.7 196.3 166.8 0.00 0.2159728 50.0
2021-03-01 14:15:00 54.2 27.9 21.7 54.2 54.2 8.0 11.2 7.8 215.8 189.3 0.00 0.2124567 50.1
2021-03-01 14:20:00 54.2 28.5 22.2 54.2 54.2 5.6 9.9 6.1 166.5 210.5 0.00 0.2087211 50.2
2021-03-01 14:25:00 54.1 26.6 20.6 54.1 54.1 6.3 13.3 9.0 219.3 206.3 0.00 0.2067667 50.4
2021-03-01 14:30:00 54.5 26.1 20.4 54.5 54.5 7.4 9.9 7.9 197.9 206.7 0.00 0.2014211 50.5
2021-03-01 14:35:00 54.7 26.1 20.5 54.7 54.7 9.4 11.0 6.9 231.9 209.9 0.00 0.1997327 50.6
2021-03-01 14:40:00 54.6 26.3 20.7 54.6 54.6 7.1 10.8 7.6 168.1 225.3 0.00 0.1939458 50.7
2021-03-01 14:45:00 54.9 25.0 19.7 54.9 54.9 10.1 10.8 8.1 199.5 211.6 0.00 0.1900340 50.8
2021-03-01 14:50:00 55.2 24.5 19.6 55.2 55.2 10.1 15.1 8.0 220.3 186.0 0.00 0.1857525 50.9
2021-03-01 14:55:00 55.1 24.7 19.6 55.1 55.1 6.5 11.2 7.8 218.7 203.1 0.00 0.1822871 51.0
2021-03-01 15:00:00 54.9 24.4 19.2 54.9 54.9 10.5 10.5 7.7 219.3 211.9 0.00 0.1795099 51.1
2021-03-01 15:05:00 54.9 25.9 20.5 54.9 54.9 4.7 10.3 7.3 218.8 209.3 0.00 0.1764386 51.2
2021-03-01 15:10:00 55.2 24.8 19.8 55.2 55.2 9.9 9.9 6.2 215.9 236.3 0.00 0.1714058 51.3
2021-03-01 15:15:00 55.9 23.8 19.4 55.9 55.9 6.2 11.3 6.9 185.4 200.8 0.00 0.1663005 51.4
2021-03-01 15:20:00 55.1 24.0 18.8 55.1 55.1 5.3 9.6 6.2 156.7 176.8 0.00 0.1616677 51.4
2021-03-01 15:25:00 55.6 23.8 19.1 55.6 55.6 2.2 6.9 4.2 184.5 130.3 0.00 0.1574157 51.5
2021-03-01 15:30:00 56.0 23.6 19.3 56.0 56.0 2.8 4.7 2.7 164.4 129.3 0.00 0.1531911 51.6
2021-03-01 15:35:00 55.6 23.9 19.2 55.6 55.6 6.7 8.3 5.5 182.8 183.4 0.00 0.1485471 51.6
2021-03-01 15:40:00 55.7 23.2 18.6 55.7 55.7 5.5 6.9 4.9 177.3 183.9 0.00 0.1437520 51.7
2021-03-01 15:45:00 55.3 23.5 18.7 55.3 55.3 4.2 4.9 2.1 160.9 156.0 0.00 0.1382295 51.8
2021-03-01 15:50:00 55.6 24.0 19.3 55.6 55.6 1.5 4.4 1.5 169.2 176.7 0.00 0.1331556 51.8
2021-03-01 15:55:00 56.2 22.1 18.0 56.2 56.2 6.3 9.0 3.0 203.1 182.9 0.00 0.1285829 51.9
2021-03-01 16:00:00 55.4 24.0 19.1 55.4 55.4 2.8 8.3 5.8 206.0 170.4 0.00 0.1237208 51.9
2021-03-01 16:05:00 55.6 22.9 18.2 55.6 55.6 5.3 5.3 2.6 262.9 229.6 0.00 0.1187173 52.0
2021-03-01 16:10:00 55.8 22.1 17.5 55.8 55.8 6.2 7.8 5.5 193.1 217.6 0.00 0.1132844 52.1
2021-03-01 16:15:00 55.2 24.2 19.2 55.2 55.2 4.0 7.8 4.9 264.2 221.9 0.00 0.1082294 52.1
2021-03-01 16:20:00 55.2 23.1 18.1 55.2 55.2 4.9 6.5 3.4 246.3 251.9 0.00 0.1030663 52.2
2021-03-01 16:25:00 55.8 22.1 17.6 55.8 55.8 1.2 4.9 2.1 236.1 249.1 0.00 0.0974337 52.2
2021-03-01 16:30:00 55.9 22.0 17.6 55.9 55.9 3.1 8.0 5.5 210.9 235.6 0.00 0.0921409 52.3
2021-03-01 16:35:00 56.1 21.7 17.4 56.1 56.1 3.7 5.1 3.2 242.3 223.9 0.00 0.0870660 52.3
2021-03-01 16:40:00 55.6 21.8 17.1 55.6 55.6 4.7 7.8 3.8 185.8 214.1 0.00 0.0816247 52.3
2021-03-01 16:45:00 55.3 23.4 18.5 55.3 55.3 1.9 5.5 3.1 180.4 171.5 0.00 0.0763068 52.3
2021-03-01 16:50:00 55.8 22.6 18.1 55.8 55.8 1.7 6.2 3.0 198.1 180.9 0.00 0.0713990 52.3
2021-03-01 16:55:00 55.5 21.9 17.2 55.5 55.5 2.4 8.8 3.1 162.1 170.4 0.00 0.0659047 52.3
2021-03-01 17:00:00 55.5 22.1 17.3 55.5 55.5 4.9 6.9 4.8 165.4 173.9 0.00 0.0604611 52.3
2021-03-01 17:05:00 55.4 21.7 16.8 55.4 55.4 2.1 5.5 3.0 98.7 136.0 0.00 0.0553371 52.4
2021-03-01 17:10:00 55.5 22.1 17.3 55.5 55.5 6.5 6.5 3.2 153.8 159.9 0.00 0.0503210 52.4
2021-03-01 17:15:00 55.1 23.2 18.1 55.1 55.1 4.2 6.9 4.3 160.7 155.7 0.00 0.0454267 52.4
2021-03-01 17:20:00 54.9 22.6 17.3 54.9 54.9 3.8 5.6 3.6 130.6 170.4 0.00 0.0406362 52.4
2021-03-01 17:25:00 54.8 22.9 17.5 54.8 54.8 3.5 4.7 3.2 177.1 151.3 0.00 0.0354343 52.3
2021-03-01 17:30:00 54.7 23.6 18.2 54.7 54.7 4.0 6.2 4.5 147.3 157.0 0.00 0.0293871 52.3
2021-03-01 17:35:00 54.3 23.3 17.6 54.3 54.3 4.7 6.3 3.5 194.3 154.4 0.00 0.0232347 52.3
2021-03-01 17:40:00 54.0 23.2 17.2 54.0 54.0 4.0 6.9 4.1 184.3 187.1 0.00 0.0175937 52.3
2021-03-01 17:45:00 53.6 23.9 17.5 53.6 53.6 2.6 5.5 3.9 180.4 171.6 0.00 0.0126129 52.3
2021-03-01 17:50:00 53.3 24.3 17.7 53.3 53.3 1.7 5.1 2.9 163.4 156.4 0.00 0.0071954 52.2
2021-03-01 17:55:00 52.9 25.1 18.1 52.9 52.9 2.1 5.6 3.3 167.3 170.9 0.00 0.0040696 52.2
2021-03-01 18:00:00 52.4 25.9 18.4 52.4 52.4 2.8 5.3 3.3 126.5 163.0 0.00 0.0029886 52.2
2021-03-01 18:05:00 52.4 25.9 18.4 52.4 52.4 5.1 5.5 3.9 195.5 158.6 0.00 0.0019722 52.1
2021-03-01 18:10:00 51.9 26.0 18.0 51.9 51.9 5.8 5.8 2.2 148.9 154.7 0.00 0.0011660 52.1
2021-03-01 18:15:00 51.8 26.5 18.4 51.8 51.8 4.2 6.0 3.4 140.8 160.4 0.00 0.0006365 52.0
2021-03-01 18:20:00 51.3 27.2 18.6 51.3 51.3 4.7 6.5 3.7 185.1 166.3 0.00 0.0003031 52.0
2021-03-01 18:25:00 51.2 27.5 18.7 51.2 51.2 1.9 4.7 3.0 183.4 160.6 0.00 0.0001091 51.9
2021-03-01 18:30:00 50.5 28.2 18.7 50.5 50.5 2.6 3.8 2.7 149.9 163.3 0.00 0.0000546 51.9
2021-03-01 18:35:00 50.4 29.3 19.6 50.4 50.4 1.9 4.2 2.7 139.4 162.0 0.00 0.0000424 51.8
2021-03-01 18:40:00 50.2 29.8 19.8 50.2 50.2 0.0 3.1 1.2 153.4 154.1 0.00 0.0000525 51.8
2021-03-01 18:45:00 49.8 29.7 19.3 49.8 49.8 1.7 4.2 1.6 139.0 143.4 0.00 0.0000445 51.7
2021-03-01 18:50:00 49.6 29.9 19.4 49.6 49.6 0.0 3.0 1.2 143.7 150.3 0.00 0.0000182 51.7
2021-03-01 18:55:00 49.1 30.6 19.4 49.1 49.1 0.0 2.8 0.6 150.4 151.2 0.00 0.0000303 51.6
2021-03-01 19:00:00 49.2 30.7 19.6 49.2 49.2 2.2 3.1 1.6 152.5 155.9 0.00 0.0000000 51.5
2021-03-01 19:05:00 49.0 31.3 19.9 49.0 49.0 0.0 3.5 0.7 137.3 132.5 0.00 0.0000000 51.5
2021-03-01 19:10:00 48.4 31.6 19.6 48.4 48.4 0.8 2.6 0.6 155.5 146.9 0.00 0.0000000 51.4
2021-03-01 19:15:00 48.3 31.9 19.7 48.3 48.3 1.5 3.1 0.9 142.4 151.0 0.00 0.0000000 51.3
2021-03-01 19:20:00 48.2 32.9 20.3 48.2 48.2 0.0 1.5 0.2 154.7 146.1 0.00 0.0000000 51.3
2021-03-01 19:25:00 48.0 32.5 19.9 48.0 48.0 0.0 1.3 0.3 147.6 143.5 0.00 0.0000000 51.2
2021-03-01 19:30:00 47.9 32.1 19.5 47.9 47.9 1.2 3.0 0.9 116.6 127.9 0.00 0.0000000 51.1
2021-03-01 19:35:00 47.8 32.0 19.3 47.8 47.8 1.2 3.3 1.6 134.5 135.1 0.00 0.0000000 51.0
2021-03-01 19:40:00 47.5 32.6 19.6 47.5 47.5 1.7 2.6 0.8 129.7 132.5 0.00 0.0000000 51.0
2021-03-01 19:45:00 47.6 32.5 19.5 47.6 47.6 1.9 2.1 1.0 111.3 130.6 0.00 0.0000000 50.9
2021-03-01 19:50:00 47.6 32.1 19.2 47.6 47.6 2.6 5.5 3.3 152.1 128.7 0.00 0.0000020 50.8
2021-03-01 19:55:00 47.9 31.1 18.8 46.7 47.9 3.7 5.8 4.1 112.3 123.1 0.00 0.0000000 50.8
2021-03-01 20:00:00 47.7 31.3 18.8 44.9 47.7 6.0 6.0 3.5 113.6 126.0 0.00 0.0000000 50.7
2021-03-01 20:05:00 47.7 30.6 18.2 45.9 47.7 4.4 6.2 4.0 118.7 130.2 0.00 0.0000000 50.6
2021-03-01 20:10:00 47.7 30.7 18.3 46.4 47.7 3.7 9.4 5.1 125.3 134.1 0.00 0.0000000 50.6
2021-03-01 20:15:00 47.6 29.9 17.6 45.3 47.6 5.1 6.5 4.4 101.5 129.1 0.00 0.0000000 50.5
2021-03-01 20:20:00 47.6 30.0 17.7 45.8 47.6 4.4 7.6 4.8 141.2 131.1 0.00 0.0000000 50.4
2021-03-01 20:25:00 47.4 29.7 17.3 47.4 47.4 2.6 7.2 4.8 107.4 126.3 0.00 0.0000020 50.3
2021-03-01 20:30:00 47.0 29.9 17.0 45.5 47.0 3.8 9.0 4.4 189.2 131.4 0.00 0.0000000 50.3
2021-03-01 20:35:00 47.0 30.3 17.4 45.1 47.0 4.4 6.9 5.0 158.4 141.8 0.00 0.0000000 50.2
2021-03-01 20:40:00 46.7 30.6 17.3 43.8 46.7 5.8 8.0 5.0 153.3 143.5 0.00 0.0000000 50.1
2021-03-01 20:45:00 46.6 30.8 17.4 44.5 46.6 4.6 6.5 4.2 161.2 138.9 0.00 0.0000000 50.1
2021-03-01 20:50:00 46.6 31.4 17.8 44.1 46.6 5.1 6.3 4.0 150.2 138.6 0.00 0.0000000 50.0
2021-03-01 20:55:00 46.0 32.8 18.3 46.0 46.0 2.2 6.9 3.6 151.8 146.2 0.00 0.0000000 49.9
2021-03-01 21:00:00 46.0 33.0 18.4 44.4 46.0 3.8 6.7 4.0 155.6 142.4 0.00 0.0000000 49.9
2021-03-01 21:05:00 46.0 34.0 19.1 44.5 46.0 3.7 5.6 3.4 118.4 133.3 0.00 0.0000000 49.8
2021-03-01 21:10:00 46.0 35.2 19.9 46.0 46.0 3.0 5.5 2.8 111.3 136.5 0.00 0.0000000 49.8
2021-03-01 21:15:00 45.8 35.4 20.0 42.7 45.8 6.0 7.2 4.6 156.3 137.7 0.00 0.0000000 49.7
2021-03-01 21:20:00 45.5 36.9 20.7 43.5 45.5 4.2 8.3 4.3 162.6 143.3 0.00 0.0000000 49.7
2021-03-01 21:25:00 45.3 39.0 21.8 41.7 45.3 6.7 7.4 3.9 151.8 144.2 0.00 0.0000000 49.6
2021-03-01 21:30:00 45.3 40.5 22.6 41.5 45.3 6.9 7.2 4.5 173.8 152.6 0.00 0.0000000 49.6
2021-03-01 21:35:00 45.0 41.5 23.0 43.9 45.0 3.1 7.1 4.6 128.3 148.1 0.00 0.0000000 49.5
2021-03-01 21:40:00 44.7 42.0 22.9 42.1 44.7 4.7 6.7 4.0 120.5 152.0 0.00 0.0000000 49.4
2021-03-01 21:45:00 44.9 42.7 23.5 42.1 44.9 5.1 6.7 3.8 105.3 147.9 0.00 0.0000040 49.4
2021-03-01 21:50:00 44.7 42.9 23.5 44.7 44.7 2.6 6.5 3.5 123.3 126.7 0.00 0.0000081 49.3
2021-03-01 21:55:00 44.3 43.0 23.2 41.2 44.3 5.5 6.3 3.6 109.5 133.2 0.00 0.0000121 49.3
2021-03-01 22:00:00 44.1 43.5 23.2 42.6 44.1 3.3 7.8 4.5 143.4 153.0 0.00 0.0000040 49.2
2021-03-01 22:05:00 43.7 45.0 23.7 43.7 43.7 2.2 6.5 4.1 150.0 163.3 0.00 0.0000000 49.2
2021-03-01 22:10:00 43.5 45.0 23.5 43.5 43.5 2.6 5.1 2.5 182.4 165.2 0.00 0.0000121 49.1
2021-03-01 22:15:00 42.7 45.8 23.2 41.3 42.7 3.1 4.2 2.7 183.7 186.1 0.00 0.0000182 49.0
2021-03-01 22:20:00 41.9 46.3 22.8 41.9 41.9 2.4 3.1 1.6 156.3 181.6 0.00 0.0000121 49.0
2021-03-01 22:25:00 41.6 46.5 22.6 41.6 41.6 1.5 4.0 1.7 176.5 155.0 0.00 0.0000263 48.9
2021-03-01 22:30:00 41.3 46.8 22.4 41.3 41.3 0.0 2.4 0.8 126.8 156.9 0.00 0.0000425 48.9
2021-03-01 22:35:00 41.0 47.5 22.5 41.0 41.0 1.2 2.1 0.6 173.6 171.4 0.00 0.0000344 48.8
2021-03-01 22:40:00 40.8 48.2 22.7 40.8 40.8 0.8 2.4 1.1 210.6 184.3 0.00 0.0000101 48.8
2021-03-01 22:45:00 40.2 48.7 22.4 40.2 40.2 0.0 2.2 1.7 226.5 213.6 0.00 0.0000020 48.7
2021-03-01 22:50:00 39.7 49.5 22.3 39.7 39.7 0.0 1.0 0.1 237.8 221.4 0.00 0.0000040 48.7
2021-03-01 22:55:00 39.5 49.4 22.1 39.5 39.5 0.0 0.0 0.0 248.8 0.0 0.00 0.0000000 48.7
2021-03-01 23:00:00 39.4 49.4 22.0 39.4 39.4 0.0 0.0 0.0 226.5 0.0 0.00 0.0000000 48.6
2021-03-01 23:05:00 39.1 49.9 22.0 39.1 39.1 0.0 0.0 0.0 235.1 0.0 0.00 0.0000000 48.5
2021-03-01 23:10:00 38.6 51.0 22.0 38.6 38.6 0.0 0.0 0.0 224.6 0.0 0.00 0.0000000 48.5
2021-03-01 23:15:00 37.8 51.6 21.6 37.8 37.8 0.0 0.0 0.0 255.4 0.0 0.00 0.0000000 48.4
2021-03-01 23:20:00 38.0 51.7 21.7 38.0 38.0 0.0 0.0 0.0 255.1 0.0 0.00 0.0000000 48.3
2021-03-01 23:25:00 37.9 52.1 21.9 37.9 37.9 0.0 0.0 0.0 256.7 0.0 0.00 0.0000000 48.3
2021-03-01 23:30:00 37.8 51.5 21.5 37.8 37.8 0.0 0.0 0.0 251.8 0.0 0.00 0.0000020 48.2
2021-03-01 23:35:00 37.3 52.8 21.6 37.3 37.3 0.0 0.0 0.0 246.9 0.0 0.00 0.0000000 48.2
2021-03-01 23:40:00 37.1 52.5 21.3 37.1 37.1 0.0 0.0 0.0 270.8 0.0 0.00 0.0000000 48.1
2021-03-01 23:45:00 36.9 52.7 21.2 36.9 36.9 0.0 0.0 0.0 254.7 0.0 0.00 0.0000000 48.0
2021-03-01 23:50:00 36.8 52.5 21.0 36.8 36.8 0.0 0.0 0.0 272.3 0.0 0.00 0.0000000 48.0
2021-03-01 23:55:00 36.3 53.4 21.0 36.3 36.3 0.0 0.0 0.0 249.6 0.0 0.00 0.0000000 47.9
2021-03-02 00:00:00 36.3 52.9 20.8 36.3 36.3 0.0 0.0 0.0 260.2 0.0 0.00 0.0000000 47.9
2021-03-02 00:05:00 35.9 52.6 20.2 35.9 35.9 0.0 0.0 0.0 258.4 0.0 0.00 0.0000040 47.8
2021-03-02 00:10:00 35.7 52.6 20.1 35.7 35.7 0.0 0.0 0.0 25.5 0.0 0.00 0.0000020 47.8
2021-03-02 00:15:00 35.7 53.9 20.6 35.7 35.7 0.0 0.0 0.0 1.6 0.0 0.00 0.0000223 47.7
2021-03-02 00:20:00 35.6 53.8 20.4 35.6 35.6 0.0 0.0 0.0 333.1 0.0 0.00 0.0000283 47.6
2021-03-02 00:25:00 35.3 54.0 20.3 35.3 35.3 0.0 0.0 0.0 257.5 0.0 0.00 0.0000263 47.6
2021-03-02 00:30:00 35.4 53.3 20.0 35.4 35.4 0.0 0.0 0.0 243.4 0.0 0.00 0.0000405 47.5
2021-03-02 00:35:00 35.1 54.0 20.1 35.1 35.1 0.0 0.0 0.0 218.1 0.0 0.00 0.0000283 47.4
2021-03-02 00:40:00 34.8 54.7 20.2 34.8 34.8 0.0 0.0 0.0 185.1 0.0 0.00 0.0000040 47.4
2021-03-02 00:45:00 34.7 54.4 19.9 34.7 34.7 0.0 0.0 0.0 73.6 0.0 0.00 0.0000223 47.3
2021-03-02 00:50:00 35.0 54.5 20.2 35.0 35.0 0.0 0.0 0.0 74.9 0.0 0.00 0.0000101 47.3
2021-03-02 00:55:00 35.2 53.9 20.2 35.2 35.2 0.0 0.0 0.0 261.0 0.0 0.00 0.0000081 47.2
2021-03-02 01:00:00 34.8 55.1 20.3 34.8 34.8 0.0 0.0 0.0 225.5 0.0 0.00 0.0000000 47.1
2021-03-02 01:05:00 34.6 56.9 20.9 34.6 34.6 0.0 0.0 0.0 205.8 0.0 0.00 0.0000000 47.1
2021-03-02 01:10:00 34.3 57.5 20.9 34.3 34.3 0.0 0.0 0.0 266.6 0.0 0.00 0.0000000 47.0
2021-03-02 01:15:00 33.9 56.4 20.0 33.9 33.9 0.0 0.0 0.0 275.5 0.0 0.00 0.0000000 46.9
2021-03-02 01:20:00 33.8 57.8 20.5 33.8 33.8 0.0 0.0 0.0 238.0 0.0 0.00 0.0000000 46.9
2021-03-02 01:25:00 33.7 59.2 21.0 33.7 33.7 0.0 0.0 0.0 246.3 0.0 0.00 0.0000000 46.8
2021-03-02 01:30:00 34.3 57.6 20.9 34.3 34.3 0.0 0.0 0.0 240.4 0.0 0.00 0.0000000 46.8
2021-03-02 01:35:00 34.2 57.9 20.9 30.6 34.2 4.0 4.2 1.9 246.6 246.2 0.00 0.0000000 46.7
2021-03-02 01:40:00 34.2 60.2 21.8 31.2 34.2 3.5 4.9 3.9 243.0 243.8 0.00 0.0000000 46.7
2021-03-02 01:45:00 34.3 60.0 21.8 31.7 34.3 3.1 3.8 3.3 230.1 238.0 0.00 0.0000000 46.6
2021-03-02 01:50:00 34.2 59.9 21.7 34.2 34.2 2.6 3.7 3.0 235.5 240.9 0.00 0.0000000 46.5
2021-03-02 01:55:00 34.2 60.4 21.9 31.6 34.2 3.1 4.4 3.4 241.0 245.4 0.00 0.0000000 46.5
2021-03-02 02:00:00 34.1 61.1 22.1 34.1 34.1 2.4 4.9 3.3 214.4 228.2 0.00 0.0000000 46.4
2021-03-02 02:05:00 34.0 60.8 21.9 34.0 34.0 0.0 3.0 1.5 258.6 230.7 0.00 0.0000000 46.4
2021-03-02 02:10:00 33.8 60.7 21.7 33.8 33.8 0.0 0.0 0.0 35.0 0.0 0.00 0.0000000 46.3
2021-03-02 02:15:00 34.0 60.2 21.7 34.0 34.0 0.0 0.0 0.0 343.7 0.0 0.00 0.0000000 46.3
2021-03-02 02:20:00 34.2 61.2 22.2 34.2 34.2 0.0 0.0 0.0 322.1 0.0 0.00 0.0000000 46.2
2021-03-02 02:25:00 34.2 60.5 22.0 34.2 34.2 0.0 0.0 0.0 337.2 0.0 0.00 0.0000000 46.2
2021-03-02 02:30:00 34.0 59.8 21.5 34.0 34.0 0.0 0.0 0.0 216.2 0.0 0.00 0.0000000 46.1
2021-03-02 02:35:00 33.6 61.8 21.9 33.6 33.6 0.0 0.0 0.0 336.4 0.0 0.00 0.0000000 46.0
2021-03-02 02:40:00 33.2 62.6 21.8 33.2 33.2 0.0 0.0 0.0 120.2 0.0 0.00 0.0000000 46.0
2021-03-02 02:45:00 32.8 63.2 21.6 32.8 32.8 0.0 0.0 0.0 244.8 0.0 0.00 0.0000000 46.0
2021-03-02 02:50:00 32.7 63.6 21.7 32.7 32.7 0.0 0.0 0.0 263.9 0.0 0.00 0.0000000 45.9
2021-03-02 02:55:00 31.9 62.5 20.5 31.9 31.9 0.0 0.0 0.0 321.7 0.0 0.00 0.0000000 45.8
2021-03-02 03:00:00 31.7 65.1 21.3 31.7 31.7 0.0 0.0 0.0 263.1 0.0 0.00 0.0000000 45.8
2021-03-02 03:05:00 32.4 63.3 21.3 32.4 32.4 0.0 0.0 0.0 299.8 0.0 0.00 0.0000000 45.7
2021-03-02 03:10:00 32.6 61.2 20.7 32.6 32.6 0.0 0.0 0.0 315.4 0.0 0.00 0.0000000 45.7
2021-03-02 03:15:00 32.6 61.4 20.8 32.6 32.6 0.0 0.0 0.0 22.2 0.0 0.00 0.0000000 45.6
2021-03-02 03:20:00 33.4 60.7 21.3 33.4 33.4 2.4 2.8 0.5 13.7 358.3 0.00 0.0000000 45.6
2021-03-02 03:25:00 33.7 59.2 21.0 30.6 33.7 3.5 3.7 2.8 2.8 357.2 0.00 0.0000000 45.5
2021-03-02 03:30:00 33.8 59.5 21.2 33.8 33.8 0.0 3.7 1.0 239.1 350.3 0.00 0.0000000 45.5
2021-03-02 03:35:00 33.3 60.6 21.1 33.3 33.3 0.0 0.0 0.0 224.1 0.0 0.00 0.0000000 45.4
2021-03-02 03:40:00 32.5 61.5 20.7 32.5 32.5 0.0 0.0 0.0 157.5 0.0 0.00 0.0000000 45.4
2021-03-02 03:45:00 32.2 60.7 20.1 32.2 32.2 0.0 0.0 0.0 90.3 0.0 0.00 0.0000000 45.3
2021-03-02 03:50:00 32.2 62.3 20.8 32.2 32.2 0.0 0.0 0.0 75.5 0.0 0.00 0.0000000 45.3
2021-03-02 03:55:00 32.1 61.9 20.5 32.1 32.1 0.0 0.0 0.0 68.7 0.0 0.00 0.0000000 45.2
2021-03-02 04:00:00 31.9 63.4 20.9 31.9 31.9 0.0 0.0 0.0 168.3 0.0 0.00 0.0000020 45.2
2021-03-02 04:05:00 31.9 63.1 20.8 31.9 31.9 0.0 0.0 0.0 49.6 0.0 0.00 0.0000000 45.1
2021-03-02 04:10:00 31.5 62.2 20.1 31.5 31.5 0.0 0.0 0.0 49.3 0.0 0.00 0.0000020 45.1
2021-03-02 04:15:00 31.4 64.5 20.8 31.4 31.4 0.0 0.0 0.0 227.4 0.0 0.00 0.0000000 45.0
2021-03-02 04:20:00 31.0 65.4 20.8 31.0 31.0 0.0 0.0 0.0 211.2 0.0 0.00 0.0000000 45.0
2021-03-02 04:25:00 30.7 65.3 20.4 30.7 30.7 0.0 0.0 0.0 213.4 0.0 0.00 0.0000000 44.9
2021-03-02 04:30:00 30.2 63.3 19.2 30.2 30.2 0.0 0.0 0.0 329.9 0.0 0.00 0.0000020 44.8
2021-03-02 04:35:00 30.0 65.8 19.9 30.0 30.0 0.0 0.0 0.0 216.5 0.0 0.00 0.0000000 44.8
2021-03-02 04:40:00 30.1 66.6 20.3 30.1 30.1 0.0 0.0 0.0 223.0 0.0 0.00 0.0000000 44.7
2021-03-02 04:45:00 30.0 66.4 20.1 30.0 30.0 0.0 0.0 0.0 11.9 0.0 0.00 0.0000000 44.7
2021-03-02 04:50:00 30.0 66.5 20.2 30.0 30.0 0.0 0.0 0.0 11.9 0.0 0.00 0.0000000 44.6
2021-03-02 04:55:00 30.1 65.8 20.1 30.1 30.1 0.0 0.0 0.0 222.5 0.0 0.00 0.0000000 44.6
2021-03-02 05:00:00 30.5 65.5 20.3 30.5 30.5 0.0 0.0 0.0 232.1 0.0 0.00 0.0000000 44.5
2021-03-02 05:05:00 30.4 66.3 20.5 30.4 30.4 0.0 0.0 0.0 235.6 0.0 0.00 0.0000000 44.5
2021-03-02 05:10:00 29.8 67.0 20.2 29.8 29.8 1.3 3.0 1.9 250.8 253.7 0.00 0.0000000 44.4
2021-03-02 05:15:00 29.6 66.7 19.9 29.6 29.6 0.8 1.9 1.0 270.7 261.6 0.00 0.0000000 44.4
2021-03-02 05:20:00 29.1 68.3 20.0 29.1 29.1 1.2 2.2 1.3 230.5 249.7 0.00 0.0000020 44.3
2021-03-02 05:25:00 28.7 68.6 19.7 28.7 28.7 0.0 1.0 0.0 271.3 241.5 0.00 0.0000020 44.3
2021-03-02 05:30:00 28.4 69.2 19.6 28.4 28.4 0.0 0.0 0.0 261.5 0.0 0.00 0.0000020 44.2
2021-03-02 05:35:00 28.6 70.0 20.1 28.6 28.6 1.2 3.3 1.8 242.0 252.6 0.00 0.0000000 44.2
2021-03-02 05:40:00 28.1 71.2 20.0 28.1 28.1 0.0 0.8 0.0 274.7 234.8 0.00 0.0000040 44.1
2021-03-02 05:45:00 28.4 70.9 20.2 28.4 28.4 0.0 0.0 0.0 220.6 0.0 0.00 0.0000000 44.1
2021-03-02 05:50:00 28.0 72.2 20.2 28.0 28.0 0.0 0.0 0.0 330.9 0.0 0.00 0.0000020 44.1
2021-03-02 05:55:00 27.8 71.5 19.8 27.8 27.8 0.0 0.0 0.0 22.3 0.0 0.00 0.0000000 44.0
2021-03-02 06:00:00 27.6 72.3 19.9 27.6 27.6 0.0 0.0 0.0 97.1 0.0 0.00 0.0000000 44.0
2021-03-02 06:05:00 28.1 72.0 20.3 28.1 28.1 1.7 1.7 0.1 155.1 167.0 0.00 0.0000020 43.9
2021-03-02 06:10:00 28.2 71.7 20.2 28.2 28.2 0.0 3.1 0.6 154.0 152.1 0.00 0.0000061 43.9
2021-03-02 06:15:00 28.0 71.2 19.9 28.0 28.0 0.0 1.5 0.2 194.5 316.4 0.00 0.0000506 43.8
2021-03-02 06:20:00 28.1 71.9 20.2 28.1 28.1 0.0 2.1 0.5 233.9 213.2 0.00 0.0001599 43.8
2021-03-02 06:25:00 27.8 71.7 19.9 27.8 27.8 0.0 0.0 0.0 227.9 0.0 0.00 0.0004047 43.7
2021-03-02 06:30:00 27.7 71.2 19.6 27.7 27.7 0.0 0.0 0.0 275.8 0.0 0.00 0.0008196 43.7
2021-03-02 06:35:00 27.5 71.4 19.5 23.7 27.5 3.3 4.6 2.9 279.7 259.5 0.00 0.0014126 43.6
2021-03-02 06:40:00 27.7 71.3 19.7 27.7 27.7 2.8 3.5 3.0 250.5 258.4 0.00 0.0020582 43.6
2021-03-02 06:45:00 28.0 71.7 20.0 28.0 28.0 0.0 2.8 1.5 256.9 242.1 0.00 0.0027565 43.6
2021-03-02 06:50:00 28.4 71.3 20.3 28.4 28.4 0.0 0.0 0.0 29.5 0.0 0.00 0.0048108 43.5
2021-03-02 06:55:00 29.0 67.6 19.6 29.0 29.0 0.0 0.0 0.0 167.5 0.0 0.00 0.0107754 43.5
2021-03-02 07:00:00 29.2 67.5 19.8 29.2 29.2 0.0 0.0 0.0 0.1 0.0 0.00 0.0155598 43.4
2021-03-02 07:05:00 29.6 66.3 19.7 29.6 29.6 2.6 2.6 1.5 337.8 357.6 0.00 0.0211512 43.4
2021-03-02 07:10:00 29.8 66.0 19.8 26.1 29.8 3.5 3.8 3.3 0.1 341.2 0.00 0.0273358 43.3
2021-03-02 07:15:00 30.6 64.6 20.1 30.6 30.6 2.1 3.3 2.5 342.1 342.1 0.00 0.0338649 43.3
2021-03-02 07:20:00 31.4 62.2 20.0 31.4 31.4 0.0 2.1 0.3 33.8 8.5 0.00 0.0400654 43.3
2021-03-02 07:25:00 32.1 59.8 19.7 28.1 32.1 4.0 4.2 2.7 0.8 356.1 0.00 0.0453871 43.2

Data is courtesy of the NM Climate Center. DO NOT USE IN LEGAL PROCEEDINGS.